Time;durP1;ratioP1;P1;durP2;ratioP2;P2;SDS_P1;SDS_P2;PMS_P1;PMS_P2;Temp;Humidity;BMP_temperature;BMP_pressure;BME280_temperature;BME280_humidity;BME280_pressure;Samples;Min_cycle;Max_cycle;Signal;HPM_P1;HPM_P2
2024/01/06 00:00:43;;;;;;;9.63;3.10;;;;;;;4.97;100.00;99179.06;5030050;28;20480;-71
2024/01/06 00:03:11;;;;;;;7.55;2.90;;;;;;;4.97;100.00;99183.44;5051121;28;20572;-72
2024/01/06 00:05:42;;;;;;;7.82;2.50;;;;;;;4.93;100.00;99177.47;5026125;28;20038;-70
2024/01/06 00:08:10;;;;;;;5.15;2.72;;;;;;;4.86;100.00;99170.81;5018924;28;20059;-68
2024/01/06 00:10:37;;;;;;;5.68;2.80;;;;;;;4.82;100.00;99179.72;5039704;28;20054;-71
2024/01/06 00:13:07;;;;;;;8.25;3.42;;;;;;;4.80;100.00;99181.56;5030053;28;20108;-71
2024/01/06 00:15:35;;;;;;;9.73;3.20;;;;;;;4.78;100.00;99188.63;5023705;28;20073;-72
2024/01/06 00:18:03;;;;;;;9.15;3.30;;;;;;;4.74;100.00;99187.91;5001568;28;20214;-72
2024/01/06 00:20:31;;;;;;;8.02;3.38;;;;;;;4.75;100.00;99181.75;5014994;28;20050;-71
2024/01/06 00:23:01;;;;;;;6.75;2.75;;;;;;;4.69;100.00;99183.78;5048076;28;20060;-71
2024/01/06 00:25:29;;;;;;;9.25;3.30;;;;;;;4.68;100.00;99190.81;5030237;28;20057;-71
2024/01/06 00:27:57;;;;;;;6.63;2.97;;;;;;;4.67;100.00;99191.72;5035012;28;20055;-72
2024/01/06 00:30:28;;;;;;;8.40;3.17;;;;;;;4.57;100.00;99180.75;5031525;28;20482;-71
2024/01/06 00:32:56;;;;;;;9.27;3.10;;;;;;;4.64;100.00;99196.22;5041326;28;20133;-72
2024/01/06 00:35:25;;;;;;;7.97;2.97;;;;;;;4.59;100.00;99196.41;5028033;28;20083;-70
2024/01/06 00:37:56;;;;;;;9.80;3.22;;;;;;;4.54;100.00;99198.41;5021066;28;20521;-70
2024/01/06 00:40:24;;;;;;;8.35;3.40;;;;;;;4.52;100.00;99205.47;5047027;28;20076;-70
2024/01/06 00:42:53;;;;;;;9.05;3.20;;;;;;;4.42;100.00;99202.34;5029939;28;20049;-71
2024/01/06 00:45:23;;;;;;;;;;;;;;;4.42;100.00;99214.59;5043385;28;20050;-71
2024/01/06 00:47:52;;;;;;;7.65;3.05;;;;;;;4.38;100.00;99213.03;5042219;28;19987;-71
2024/01/06 00:50:24;;;;;;;9.30;3.63;;;;;;;4.32;100.00;99211.50;5025555;28;20127;-73
2024/01/06 00:52:53;;;;;;;9.90;3.15;;;;;;;4.30;100.00;99208.09;5006098;28;20045;-73
2024/01/06 00:55:26;;;;;;;7.32;2.90;;;;;;;4.25;100.00;99214.47;5032285;28;20096;-71
2024/01/06 00:57:55;;;;;;;8.55;3.03;;;;;;;4.29;100.00;99227.34;5026366;28;20134;-70
2024/01/06 01:00:23;;;;;;;9.52;3.25;;;;;;;4.27;100.00;99223.09;5023104;28;20137;-70
2024/01/06 01:02:54;;;;;;;10.05;3.08;;;;;;;4.26;100.00;99232.72;5034175;28;20049;-71
2024/01/06 01:05:21;;;;;;;8.88;3.47;;;;;;;4.25;100.00;99225.75;5020989;28;20048;-71
2024/01/06 01:07:52;;;;;;;8.27;3.00;;;;;;;4.19;100.00;99215.53;5009370;28;20053;-71
2024/01/06 01:10:21;;;;;;;8.43;2.95;;;;;;;4.40;100.00;99237.44;5032048;28;20779;-72
2024/01/06 01:12:50;;;;;;;6.25;2.90;;;;;;;4.48;100.00;99241.44;5029111;28;20766;-72
2024/01/06 01:15:22;;;;;;;12.05;3.30;;;;;;;4.51;100.00;99236.06;5024047;28;20066;-72
2024/01/06 01:17:52;;;;;;;8.05;3.30;;;;;;;4.55;100.00;99244.66;5038621;28;20558;-71
2024/01/06 01:20:21;;;;;;;8.48;3.40;;;;;;;4.56;100.00;99241.97;5037427;28;20041;-71
2024/01/06 01:22:52;;;;;;;8.88;3.80;;;;;;;4.58;100.00;99240.13;5029432;28;20133;-71
2024/01/06 01:25:24;;;;;;;8.25;3.45;;;;;;;4.61;100.00;99244.41;5027869;28;20044;-71
2024/01/06 01:27:56;;;;;;;7.72;3.63;;;;;;;4.60;100.00;99247.94;5039180;28;20082;-71
2024/01/06 01:30:26;;;;;;;10.85;3.65;;;;;;;4.55;100.00;99240.28;5019706;28;20070;-72
2024/01/06 01:32:56;;;;;;;7.35;3.38;;;;;;;4.59;100.00;99244.47;5019239;28;20049;-71
2024/01/06 01:35:24;;;;;;;5.93;3.30;;;;;;;4.60;100.00;99245.31;5024280;28;20084;-70
2024/01/06 01:37:52;;;;;;;7.75;3.60;;;;;;;4.65;100.00;99258.25;5015904;28;20060;-71
2024/01/06 01:40:24;;;;;;;6.88;2.90;;;;;;;4.68;100.00;99250.25;5027542;28;20038;-71
2024/01/06 01:42:52;;;;;;;6.85;3.55;;;;;;;4.67;100.00;99259.91;5041733;28;20127;-72
2024/01/06 01:45:21;;;;;;;8.45;3.30;;;;;;;4.65;100.00;99242.50;5043914;28;20049;-71
2024/01/06 01:47:54;;;;;;;8.82;3.28;;;;;;;4.76;100.00;99254.25;5023494;28;20034;-71
2024/01/06 01:50:27;;;;;;;6.70;3.20;;;;;;;4.75;100.00;99246.44;5045603;28;20157;-72
2024/01/06 01:52:56;;;;;;;8.40;3.38;;;;;;;4.84;100.00;99257.44;5026754;28;20090;-71
2024/01/06 01:55:24;;;;;;;6.00;3.05;;;;;;;4.86;100.00;99263.47;5024008;28;20517;-72
2024/01/06 01:57:54;;;;;;;9.88;3.80;;;;;;;4.93;100.00;99266.66;5022574;28;20422;-71
2024/01/06 02:00:22;;;;;;;7.15;3.30;;;;;;;5.06;100.00;99264.38;5046262;28;20080;-71
2024/01/06 02:02:55;;;;;;;11.00;3.17;;;;;;;5.15;100.00;99262.22;5042446;28;20050;-71
2024/01/06 02:05:24;;;;;;;6.45;2.53;;;;;;;5.20;100.00;99260.25;5035971;28;20056;-72
2024/01/06 02:07:54;;;;;;;9.95;3.20;;;;;;;5.33;100.00;99268.47;5013772;28;20052;-72
2024/01/06 02:10:24;;;;;;;6.95;2.75;;;;;;;5.40;100.00;99267.25;5056380;28;20347;-70
2024/01/06 02:12:53;;;;;;;7.60;2.92;;;;;;;5.30;100.00;99250.22;5023065;28;20085;-72
2024/01/06 02:15:22;;;;;;;7.57;2.80;;;;;;;5.33;100.00;99278.09;5043709;28;20072;-72
2024/01/06 02:17:50;;;;;;;5.90;2.83;;;;;;;5.28;100.00;99275.66;5037135;28;20041;-72
2024/01/06 02:20:23;;;;;;;6.25;2.70;;;;;;;5.25;100.00;99276.66;5047043;28;20049;-72
2024/01/06 02:22:53;;;;;;;5.65;2.30;;;;;;;5.24;100.00;99256.56;5051612;28;20095;-71
2024/01/06 02:25:22;;;;;;;4.47;2.15;;;;;;;5.35;100.00;99273.66;5038771;28;20054;-70
2024/01/06 02:27:50;;;;;;;6.97;2.58;;;;;;;5.29;100.00;99261.63;5033376;28;20057;-71
2024/01/06 02:30:19;;;;;;;4.35;2.45;;;;;;;5.26;100.00;99272.25;5051677;28;20096;-71
2024/01/06 02:32:48;;;;;;;7.15;2.53;;;;;;;5.21;100.00;99268.97;5043398;28;20033;-72
2024/01/06 02:35:16;;;;;;;8.73;2.75;;;;;;;5.15;100.00;99277.13;5030572;28;20057;-72
2024/01/06 02:37:44;;;;;;;7.47;2.80;;;;;;;5.12;100.00;99278.09;5035121;28;20046;-72
2024/01/06 02:40:16;;;;;;;;;;;;;;;5.11;100.00;99276.38;5030564;28;20041;-72
2024/01/06 02:42:45;;;;;;;10.30;2.80;;;;;;;5.08;100.00;99273.88;5037294;28;19972;-71
2024/01/06 02:45:13;;;;;;;5.28;2.67;;;;;;;5.11;100.00;99284.25;5049582;28;20088;-71
2024/01/06 02:47:45;;;;;;;11.60;2.97;;;;;;;5.11;100.00;99286.88;5033568;28;20042;-71
2024/01/06 02:50:14;;;;;;;6.07;2.78;;;;;;;5.11;100.00;99294.75;5026786;28;20666;-71
2024/01/06 02:52:45;;;;;;;6.80;2.97;;;;;;;5.11;100.00;99296.53;5041812;28;20037;-72
2024/01/06 02:55:14;;;;;;;11.18;3.22;;;;;;;5.09;100.00;99298.38;5032483;28;20050;-72
2024/01/06 02:57:43;;;;;;;9.63;3.22;;;;;;;5.15;100.00;99304.22;5039912;28;20128;-70
2024/01/06 03:00:15;;;;;;;7.88;2.83;;;;;;;5.14;100.00;99296.41;5043745;28;20037;-71
2024/01/06 03:02:43;;;;;;;7.43;3.00;;;;;;;5.09;100.00;99293.13;5022271;28;20076;-71
2024/01/06 03:05:11;;;;;;;7.43;2.78;;;;;;;5.09;100.00;99298.38;5047510;28;20145;-71
2024/01/06 03:07:40;;;;;;;7.10;3.08;;;;;;;5.17;100.00;99297.13;5036578;28;20041;-71
2024/01/06 03:10:09;;;;;;;8.07;2.92;;;;;;;5.21;100.00;99301.31;5023209;28;20092;-70
2024/01/06 03:12:37;;;;;;;7.20;3.28;;;;;;;5.31;100.00;99307.03;5032571;28;20394;-71
2024/01/06 03:15:11;;;;;;;10.23;3.45;;;;;;;5.42;100.00;99303.94;5032138;28;20044;-72
2024/01/06 03:17:39;;;;;;;9.38;2.95;;;;;;;5.42;100.00;99310.06;5038195;28;20236;-71
2024/01/06 03:20:08;;;;;;;8.05;2.90;;;;;;;5.33;100.00;99302.59;5029293;28;20061;-69
2024/01/06 03:22:36;;;;;;;8.80;3.65;;;;;;;5.44;100.00;99304.72;5065453;28;20045;-74
2024/01/06 03:25:06;;;;;;;8.25;2.97;;;;;;;5.45;100.00;99301.19;5036700;28;20061;-71
2024/01/06 03:27:36;;;;;;;7.95;3.00;;;;;;;5.44;100.00;99305.59;5036057;28;20052;-72
2024/01/06 03:30:08;;;;;;;8.15;3.08;;;;;;;5.44;100.00;99291.59;5025738;28;20049;-70
2024/01/06 03:32:40;;;;;;;7.88;2.97;;;;;;;5.52;100.00;99302.63;5050924;28;20049;-70
2024/01/06 03:35:10;;;;;;;7.20;3.10;;;;;;;5.51;100.00;99303.56;5051320;28;20083;-71
2024/01/06 03:37:42;;;;;;;8.13;2.70;;;;;;;5.56;100.00;99298.94;5025872;28;20041;-71
2024/01/06 03:40:12;;;;;;;7.32;3.20;;;;;;;5.63;100.00;99309.13;5026633;28;20045;-70
2024/01/06 03:42:42;;;;;;;9.02;3.35;;;;;;;5.59;100.00;99304.06;5047782;28;20103;-70
2024/01/06 03:45:11;;;;;;;8.55;3.47;;;;;;;5.46;100.00;99298.50;5034346;28;20102;-71
2024/01/06 03:47:42;;;;;;;11.35;3.70;;;;;;;5.36;100.00;99298.94;5027957;28;20045;-71
2024/01/06 03:50:10;;;;;;;10.75;3.33;;;;;;;5.31;100.00;99293.06;5021722;28;20080;-70
2024/01/06 03:52:38;;;;;;;7.57;3.00;;;;;;;5.32;100.00;99308.75;5032161;28;20043;-72
2024/01/06 03:55:07;;;;;;;10.20;3.40;;;;;;;5.32;100.00;99318.41;5034411;28;20243;-71
2024/01/06 03:57:36;;;;;;;7.95;3.28;;;;;;;5.39;100.00;99317.19;5044066;28;20084;-70
2024/01/06 04:00:05;;;;;;;8.88;3.40;;;;;;;5.44;100.00;99325.75;5034466;28;20060;-70
2024/01/06 04:02:35;;;;;;;6.65;3.03;;;;;;;5.46;100.00;99316.03;5037285;28;20043;-72
2024/01/06 04:05:07;;;;;;;10.18;3.30;;;;;;;5.55;100.00;99329.59;5015601;28;20046;-70
2024/01/06 04:07:35;;;;;;;8.93;3.33;;;;;;;5.67;100.00;99333.47;5042941;28;20045;-71
2024/01/06 04:10:04;;;;;;;8.90;3.28;;;;;;;5.66;100.00;99330.94;5023878;28;20055;-71
2024/01/06 04:12:32;;;;;;;10.20;2.80;;;;;;;5.67;100.00;99332.63;5035674;28;20459;-71
2024/01/06 04:15:05;;;;;;;6.50;3.20;;;;;;;5.69;100.00;99326.38;5032712;28;20050;-71
2024/01/06 04:17:34;;;;;;;6.68;3.50;;;;;;;5.78;100.00;99341.75;5045213;28;20049;-71
2024/01/06 04:20:04;;;;;;;12.85;3.42;;;;;;;5.79;100.00;99334.72;5038392;28;20565;-72
2024/01/06 04:22:33;;;;;;;10.52;3.58;;;;;;;5.76;100.00;99330.44;5030227;28;20037;-71
2024/01/06 04:25:01;;;;;;;8.68;3.10;;;;;;;5.70;100.00;99325.44;5031335;28;20053;-71
2024/01/06 04:27:33;;;;;;;8.77;3.35;;;;;;;5.75;100.00;99334.00;5031967;28;20100;-70
2024/01/06 04:30:02;;;;;;;8.77;3.40;;;;;;;5.75;100.00;99331.34;5017376;28;20811;-72
2024/01/06 04:32:30;;;;;;;5.78;2.78;;;;;;;5.74;100.00;99336.69;5012529;28;20072;-71
2024/01/06 04:34:58;;;;;;;9.63;2.90;;;;;;;5.78;100.00;99336.47;5027572;28;20038;-71
2024/01/06 04:37:27;;;;;;;5.93;3.10;;;;;;;5.80;100.00;99334.66;5024180;28;20187;-71
2024/01/06 04:39:58;;;;;;;7.68;2.95;;;;;;;5.81;100.00;99336.34;5018075;28;20049;-71
2024/01/06 04:42:27;;;;;;;7.53;3.10;;;;;;;5.80;100.00;99333.78;5043164;28;20034;-71
2024/01/06 04:44:55;;;;;;;7.85;2.75;;;;;;;5.72;100.00;99336.75;5029770;28;20658;-70
2024/01/06 04:47:23;;;;;;;6.10;2.88;;;;;;;5.73;100.00;99337.59;5005292;28;20050;-70
2024/01/06 04:49:52;;;;;;;8.05;2.78;;;;;;;5.64;100.00;99339.72;4986258;28;20124;-71
2024/01/06 04:52:20;;;;;;;8.02;2.70;;;;;;;5.51;100.00;99337.69;5030128;28;20052;-72
2024/01/06 04:54:49;;;;;;;7.03;3.20;;;;;;;5.42;100.00;99341.56;5030444;28;20037;-73
2024/01/06 04:57:20;;;;;;;8.43;3.10;;;;;;;5.41;100.00;99328.50;4991571;28;20050;-72
2024/01/06 04:59:52;;;;;;;9.18;3.33;;;;;;;5.51;100.00;99327.19;5018674;28;20101;-71
2024/01/06 05:02:20;;;;;;;5.35;2.90;;;;;;;5.58;100.00;99326.84;5027129;28;20041;-70
2024/01/06 05:04:49;;;;;;;7.15;3.10;;;;;;;5.66;100.00;99310.75;5023887;28;20531;-72
2024/01/06 05:07:18;;;;;;;9.25;2.70;;;;;;;5.87;100.00;99320.28;5050193;28;20506;-71
2024/01/06 05:09:47;;;;;;;5.55;2.78;;;;;;;5.84;100.00;99315.19;5014496;28;20478;-72
2024/01/06 05:12:15;;;;;;;4.68;2.60;;;;;;;5.86;100.00;99336.13;5033197;28;20041;-72
2024/01/06 05:14:44;;;;;;;8.25;2.97;;;;;;;5.76;100.00;99325.19;5029509;28;20091;-72
2024/01/06 05:17:13;;;;;;;5.97;3.05;;;;;;;5.75;100.00;99333.13;5030506;28;20407;-71
2024/01/06 05:19:41;;;;;;;11.18;3.08;;;;;;;5.80;100.00;99339.03;5016104;28;20050;-72
2024/01/06 05:22:09;;;;;;;10.77;3.13;;;;;;;5.84;100.00;99345.84;5043955;28;20042;-72
2024/01/06 05:24:36;;;;;;;7.45;3.00;;;;;;;5.86;100.00;99344.88;5010954;28;20048;-72
2024/01/06 05:27:05;;;;;;;5.35;2.35;;;;;;;5.85;100.00;99350.19;5030145;28;20589;-72
2024/01/06 05:29:33;;;;;;;9.32;2.70;;;;;;;5.76;100.00;99358.47;5031636;28;20065;-72
2024/01/06 05:32:04;;;;;;;8.55;3.13;;;;;;;5.59;100.00;99352.19;5027612;28;20053;-72
2024/01/06 05:34:34;;;;;;;7.47;2.60;;;;;;;5.49;100.00;99344.78;5021184;28;20046;-71
2024/01/06 05:37:03;;;;;;;8.88;3.20;;;;;;;5.51;100.00;99359.53;5042740;28;20144;-72
2024/01/06 05:39:31;;;;;;;4.55;2.47;;;;;;;5.54;100.00;99348.91;5019200;28;21240;-70
2024/01/06 05:41:59;;;;;;;7.80;2.92;;;;;;;5.61;100.00;99341.63;5028514;28;20053;-70
2024/01/06 05:44:26;;;;;;;9.63;3.03;;;;;;;5.61;100.00;99333.75;5032079;28;20053;-71
2024/01/06 05:46:57;;;;;;;7.47;2.80;;;;;;;5.66;100.00;99351.94;5051136;28;20053;-72
2024/01/06 05:49:27;;;;;;;9.20;2.97;;;;;;;5.61;100.00;99352.13;5038606;28;20077;-70
2024/01/06 05:51:56;;;;;;;8.57;2.95;;;;;;;5.69;100.00;99354.41;5036778;28;20045;-73
2024/01/06 05:54:24;;;;;;;5.97;2.60;;;;;;;5.66;100.00;99346.69;5048684;28;20049;-72
2024/01/06 05:56:52;;;;;;;8.20;3.42;;;;;;;5.70;100.00;99364.00;5045727;28;20149;-71
2024/01/06 05:59:25;;;;;;;9.10;3.22;;;;;;;5.67;100.00;99369.41;5027797;28;20041;-70
2024/01/06 06:01:53;;;;;;;8.95;3.80;;;;;;;5.64;100.00;99359.88;5034869;28;20057;-71
2024/01/06 06:04:22;;;;;;;7.40;4.00;;;;;;;5.75;100.00;99362.88;5013197;28;20414;-70
2024/01/06 06:06:51;;;;;;;7.35;3.45;;;;;;;5.81;100.00;99367.03;5031290;28;20128;-71
2024/01/06 06:09:21;;;;;;;9.48;3.50;;;;;;;5.83;100.00;99367.78;5045746;28;20421;-71
2024/01/06 06:11:49;;;;;;;7.88;3.65;;;;;;;5.84;100.00;99372.97;5029264;28;20041;-72
2024/01/06 06:14:21;;;;;;;12.38;4.35;;;;;;;5.81;100.00;99380.16;5051801;28;20069;-71
2024/01/06 06:16:51;;;;;;;8.50;3.75;;;;;;;5.78;100.00;99383.78;5031307;28;20514;-72
2024/01/06 06:19:20;;;;;;;6.57;3.65;;;;;;;5.76;100.00;99380.34;5043173;28;20049;-72
2024/01/06 06:21:49;;;;;;;8.50;3.20;;;;;;;5.81;100.00;99388.91;5030918;28;20569;-72
2024/01/06 06:24:22;;;;;;;7.88;3.70;;;;;;;5.74;100.00;99382.19;5020305;28;20128;-72
2024/01/06 06:26:50;;;;;;;7.57;3.28;;;;;;;5.78;100.00;99390.78;5042602;28;20052;-72
2024/01/06 06:29:17;;;;;;;7.45;3.10;;;;;;;5.79;100.00;99406.50;5029956;28;20659;-71
2024/01/06 06:31:46;;;;;;;8.82;3.30;;;;;;;5.79;100.00;99398.63;5034645;28;20163;-71
2024/01/06 06:34:17;;;;;;;6.07;2.67;;;;;;;5.73;100.00;99398.88;5034835;28;20068;-72
2024/01/06 06:36:47;;;;;;;5.63;3.30;;;;;;;5.69;100.00;99404.31;5048213;28;20045;-73
2024/01/06 06:39:15;;;;;;;9.43;3.35;;;;;;;5.48;100.00;99395.59;5049203;28;20049;-71
2024/01/06 06:41:45;;;;;;;12.20;3.47;;;;;;;5.47;100.00;99404.38;5024189;28;20119;-72
2024/01/06 06:44:14;;;;;;;9.90;3.97;;;;;;;5.45;100.00;99411.47;5049237;28;20132;-72
2024/01/06 06:46:43;;;;;;;8.73;3.80;;;;;;;5.40;100.00;99416.03;5037044;28;20053;-73
2024/01/06 06:49:12;;;;;;;7.03;3.92;;;;;;;5.33;100.00;99411.97;5041520;28;20382;-71
2024/01/06 06:51:46;;;;;;;9.07;4.13;;;;;;;5.33;100.00;99420.72;5024203;28;20041;-72
2024/01/06 06:54:15;;;;;;;8.77;4.35;;;;;;;5.18;100.00;99414.31;5036447;28;20073;-70
2024/01/06 06:56:45;;;;;;;11.40;4.80;;;;;;;5.23;100.00;99433.34;5032714;28;20053;-71
2024/01/06 06:59:14;;;;;;;9.00;4.68;;;;;;;5.26;100.00;99429.75;5048819;28;20398;-70
2024/01/06 07:01:42;;;;;;;11.55;5.03;;;;;;;5.43;100.00;99440.41;5026223;28;20049;-72
2024/01/06 07:04:11;;;;;;;9.70;4.10;;;;;;;5.47;100.00;99447.25;5033589;28;20057;-69
2024/01/06 07:06:39;;;;;;;10.82;4.20;;;;;;;5.41;100.00;99447.50;5032896;28;20076;-72
2024/01/06 07:09:07;;;;;;;9.38;4.20;;;;;;;5.40;100.00;99450.16;5049113;28;20057;-71
2024/01/06 07:11:36;;;;;;;9.35;4.40;;;;;;;5.34;100.00;99450.44;5029116;28;20056;-73
2024/01/06 07:14:07;;;;;;;9.85;4.45;;;;;;;5.28;100.00;99447.13;5040284;28;20128;-73
2024/01/06 07:16:35;;;;;;;8.00;3.92;;;;;;;5.27;100.00;99455.94;5018415;28;20666;-73
2024/01/06 07:19:03;;;;;;;9.98;4.65;;;;;;;5.29;100.00;99456.72;5035869;28;20055;-71
2024/01/06 07:21:31;;;;;;;10.23;4.70;;;;;;;5.38;100.00;99467.75;5036752;28;20069;-71
2024/01/06 07:23:59;;;;;;;11.68;5.00;;;;;;;5.42;100.00;99467.56;5048845;28;20112;-71
2024/01/06 07:26:27;;;;;;;9.13;4.43;;;;;;;5.37;100.00;99466.03;5029872;28;20056;-71
2024/01/06 07:28:55;;;;;;;10.00;4.45;;;;;;;5.25;100.00;99460.38;5031332;28;20053;-72
2024/01/06 07:31:24;;;;;;;8.63;4.05;;;;;;;5.44;100.00;99488.53;5006040;28;20045;-72
2024/01/06 07:33:55;;;;;;;10.00;4.30;;;;;;;5.50;100.00;99483.03;5044434;28;20092;-72
2024/01/06 07:36:25;;;;;;;10.38;4.47;;;;;;;5.45;100.00;99477.09;5026068;28;20052;-72
2024/01/06 07:38:55;;;;;;;7.38;4.05;;;;;;;5.56;100.00;99493.28;5026112;28;20066;-71
2024/01/06 07:41:24;;;;;;;8.05;4.07;;;;;;;5.54;100.00;99490.69;5045392;28;20043;-71
2024/01/06 07:43:54;;;;;;;9.43;4.13;;;;;;;5.59;100.00;99495.78;5050535;28;20060;-71
2024/01/06 07:46:26;;;;;;;8.55;4.50;;;;;;;5.58;100.00;99496.69;5032657;28;20053;-72
2024/01/06 07:48:53;;;;;;;8.40;3.97;;;;;;;5.54;100.00;99493.31;5014743;28;20049;-71
2024/01/06 07:51:21;;;;;;;9.63;4.30;;;;;;;5.53;100.00;99491.63;5029334;28;20041;-71
2024/01/06 07:53:49;;;;;;;10.48;4.10;;;;;;;5.54;100.00;99495.09;5036607;28;20060;-72
2024/01/06 07:56:18;;;;;;;10.77;4.45;;;;;;;5.54;100.00;99495.09;5034239;28;20041;-71
2024/01/06 07:58:46;;;;;;;11.20;4.20;;;;;;;5.53;100.00;99499.50;5035136;28;20048;-71
2024/01/06 08:01:14;;;;;;;6.60;4.15;;;;;;;5.47;100.00;99505.00;5045421;28;20541;-72
2024/01/06 08:03:44;;;;;;;8.98;4.32;;;;;;;5.42;100.00;99516.59;5030900;28;20128;-71
2024/01/06 08:06:15;;;;;;;7.72;4.03;;;;;;;5.40;100.00;99513.19;5025497;28;20053;-71
2024/01/06 08:08:44;;;;;;;7.82;4.15;;;;;;;5.43;100.00;99526.19;5045503;28;20042;-71
2024/01/06 08:11:13;;;;;;;9.55;4.60;;;;;;;5.42;100.00;99532.34;5021904;28;20522;-71
2024/01/06 08:13:43;;;;;;;10.43;5.07;;;;;;;5.45;100.00;99535.72;5032350;28;20056;-71
2024/01/06 08:16:14;;;;;;;10.25;4.65;;;;;;;5.51;100.00;99532.00;5034463;28;20072;-71
2024/01/06 08:18:45;;;;;;;9.50;4.68;;;;;;;5.58;100.00;99549.22;5028224;28;20461;-71
2024/01/06 08:21:13;;;;;;;8.95;4.78;;;;;;;5.55;100.00;99526.56;5015421;28;20037;-71
2024/01/06 08:23:44;;;;;;;6.72;3.90;;;;;;;5.70;100.00;99547.84;5017306;28;20041;-71
2024/01/06 08:26:12;;;;;;;10.80;4.85;;;;;;;5.75;100.00;99541.50;5045026;28;20045;-71
2024/01/06 08:28:43;;;;;;;10.23;4.55;;;;;;;5.71;100.00;99539.91;5020038;28;20055;-71
2024/01/06 08:31:11;;;;;;;9.13;4.80;;;;;;;5.74;100.00;99546.81;5035061;28;20049;-69
2024/01/06 08:33:42;;;;;;;9.05;4.50;;;;;;;5.71;100.00;99542.53;5025739;28;20060;-71
2024/01/06 08:36:13;;;;;;;10.30;4.68;;;;;;;5.70;100.00;99548.72;5060424;28;20129;-70
2024/01/06 08:38:41;;;;;;;10.88;5.07;;;;;;;5.71;100.00;99555.69;5049861;28;20064;-72
2024/01/06 08:41:09;;;;;;;9.98;5.00;;;;;;;5.61;100.00;99556.97;5048904;28;20512;-70
2024/01/06 08:43:37;;;;;;;9.57;5.43;;;;;;;5.64;100.00;99562.97;5048070;28;20045;-70
2024/01/06 08:46:07;;;;;;;9.10;4.75;;;;;;;5.56;100.00;99553.66;5027802;28;20085;-71
2024/01/06 08:48:36;;;;;;;9.98;5.00;;;;;;;5.49;100.00;99546.97;5013240;28;20576;-71
2024/01/06 08:51:05;;;;;;;8.20;5.18;;;;;;;5.62;100.00;99566.56;5005318;28;20223;-71
2024/01/06 08:53:38;;;;;;;13.00;6.90;;;;;;;5.78;100.00;99566.81;5032052;28;20057;-71
2024/01/06 08:56:07;;;;;;;11.90;5.72;;;;;;;5.91;100.00;99574.16;5036983;28;20129;-71
2024/01/06 08:58:37;;;;;;;9.55;5.47;;;;;;;5.94;100.00;99574.03;5048812;28;20068;-70
2024/01/06 09:01:06;;;;;;;10.38;5.40;;;;;;;6.08;100.00;99580.50;5022572;28;20536;-71
2024/01/06 09:03:36;;;;;;;9.30;4.95;;;;;;;6.19;100.00;99575.63;5031836;28;20045;-69
2024/01/06 09:06:08;;;;;;;9.52;5.30;;;;;;;6.27;100.00;99582.28;5046342;28;20049;-70
2024/01/06 09:08:37;;;;;;;12.07;5.50;;;;;;;6.35;100.00;99574.06;5048275;28;20041;-72
2024/01/06 09:11:08;;;;;;;7.27;4.93;;;;;;;6.28;100.00;99575.25;5028083;28;20046;-69
2024/01/06 09:13:41;;;;;;;10.38;5.05;;;;;;;6.33;100.00;99582.00;5026996;28;20037;-69
2024/01/06 09:16:10;;;;;;;9.60;5.13;;;;;;;6.33;100.00;99579.38;5026743;28;20049;-73
2024/01/06 09:18:41;;;;;;;8.48;5.40;;;;;;;6.37;100.00;99588.00;5044153;28;20056;-70
2024/01/06 09:21:10;;;;;;;9.00;5.25;;;;;;;6.35;100.00;99589.84;5026332;28;20070;-70
2024/01/06 09:23:43;;;;;;;9.18;5.20;;;;;;;6.27;100.00;99590.19;5027111;28;20529;-72
2024/01/06 09:26:12;;;;;;;11.50;5.35;;;;;;;6.08;100.00;99596.25;5031627;28;20073;-72
2024/01/06 09:28:41;;;;;;;11.50;6.10;;;;;;;6.03;100.00;99599.06;5025812;28;20053;-73
2024/01/06 09:31:10;;;;;;;10.57;5.45;;;;;;;6.03;100.00;99604.31;5037221;28;20045;-71
2024/01/06 09:33:38;;;;;;;11.23;5.32;;;;;;;5.98;100.00;99588.72;5007437;28;20048;-70
2024/01/06 09:36:12;;;;;;;12.00;5.63;;;;;;;6.08;100.00;99610.25;5031810;28;20049;-73
2024/01/06 09:38:43;;;;;;;11.27;6.40;;;;;;;6.15;100.00;99606.44;5029523;28;20415;-71
2024/01/06 09:41:13;;;;;;;12.77;6.07;;;;;;;6.31;100.00;99617.16;5025751;28;20052;-70
2024/01/06 09:43:42;;;;;;;9.88;5.95;;;;;;;6.37;100.00;99601.16;5031073;28;20482;-71
2024/01/06 09:46:16;;;;;;;10.77;5.90;;;;;;;6.46;100.00;99613.91;5027068;28;20529;-70
2024/01/06 09:48:44;;;;;;;9.93;5.70;;;;;;;6.35;100.00;99592.47;5030833;28;20542;-71
2024/01/06 09:51:12;;;;;;;13.32;7.00;;;;;;;6.53;100.00;99611.88;5020330;28;20045;-69
2024/01/06 09:53:49;;;;;;;10.50;5.53;;;;;;;6.58;100.00;99613.41;5045804;28;20132;-72
2024/01/06 09:56:19;;;;;;;9.20;6.05;;;;;;;6.61;100.00;99613.22;5023935;28;20049;-72
2024/01/06 09:58:48;;;;;;;10.60;5.65;;;;;;;6.59;100.00;99609.84;5042577;28;20045;-71
2024/01/06 10:01:18;;;;;;;9.98;5.45;;;;;;;6.70;100.00;99617.25;5023909;28;20050;-71
2024/01/06 10:03:49;;;;;;;8.27;5.47;;;;;;;6.73;100.00;99616.28;5033119;28;20510;-72
2024/01/06 10:06:20;;;;;;;8.40;5.88;;;;;;;6.76;100.00;99624.03;5027786;28;20113;-72
2024/01/06 10:08:52;;;;;;;11.18;5.38;;;;;;;6.74;100.00;99620.63;5031511;28;20052;-70
2024/01/06 10:11:23;;;;;;;8.75;5.65;;;;;;;6.69;100.00;99603.25;5022198;28;20459;-71
2024/01/06 10:13:53;;;;;;;11.25;6.30;;;;;;;6.81;100.00;99629.94;5049636;28;20139;-73
2024/01/06 10:16:23;;;;;;;9.98;6.20;;;;;;;6.79;100.00;99622.09;5047002;28;20057;-71
2024/01/06 10:18:51;;;;;;;9.65;6.07;;;;;;;6.76;100.00;99631.94;5012754;28;20076;-70
2024/01/06 10:21:22;;;;;;;6.90;5.20;;;;;;;6.74;100.00;99628.50;5017866;28;20049;-71
2024/01/06 10:23:57;;;;;;;11.25;6.30;;;;;;;6.76;100.00;99638.06;5034231;28;20479;-71
2024/01/06 10:26:26;;;;;;;11.95;6.63;;;;;;;6.74;100.00;99637.25;5029210;28;20046;-72
2024/01/06 10:29:02;;;;;;;10.68;5.65;;;;;;;6.48;100.00;99596.28;5034203;28;20073;-72
2024/01/06 10:31:30;;;;;;;11.98;6.25;;;;;;;6.65;100.00;99630.59;5024799;28;20056;-70
2024/01/06 10:34:03;;;;;;;7.85;6.05;;;;;;;6.54;100.00;99651.25;5047118;28;20045;-71
2024/01/06 10:36:36;;;;;;;10.95;6.53;;;;;;;6.59;100.00;99641.41;5046968;28;20411;-70
2024/01/06 10:39:07;;;;;;;12.70;6.15;;;;;;;6.70;100.00;99643.56;5049012;28;20064;-72
2024/01/06 10:41:42;;;;;;;11.27;6.55;;;;;;;6.84;100.00;99645.59;5024973;28;20353;-71
2024/01/06 10:44:15;;;;;;;11.05;5.85;;;;;;;7.03;100.00;99633.34;5047255;28;20211;-73
2024/01/06 10:46:45;;;;;;;11.45;5.93;;;;;;;7.11;100.00;99640.88;5036533;28;20041;-71
2024/01/06 10:49:13;;;;;;;11.35;6.90;;;;;;;6.93;100.00;99629.38;5028939;28;20092;-73
2024/01/06 10:51:42;;;;;;;12.75;7.05;;;;;;;6.77;100.00;99645.00;5025660;28;20237;-69
2024/01/06 10:54:14;;;;;;;11.13;6.78;;;;;;;6.60;100.00;99637.00;5045008;28;20060;-71
2024/01/06 10:56:46;;;;;;;12.02;6.80;;;;;;;6.61;100.00;99633.44;5033633;28;20038;-72
2024/01/06 10:59:15;;;;;;;11.77;7.60;;;;;;;6.64;100.00;99630.66;5027874;28;20132;-72
2024/01/06 11:01:45;;;;;;;10.95;7.05;;;;;;;6.73;100.00;99630.28;5024920;28;20124;-70
2024/01/06 11:04:14;;;;;;;9.63;6.85;;;;;;;6.67;100.00;99626.13;5025555;28;20065;-71
2024/01/06 11:06:51;;;;;;;10.85;6.68;;;;;;;6.56;100.00;99620.50;5045254;28;20058;-71
2024/01/06 11:09:25;;;;;;;13.73;7.13;;;;;;;6.47;100.00;99617.38;5019276;28;20133;-71
2024/01/06 11:11:55;;;;;;;10.40;7.30;;;;;;;6.36;100.00;99628.38;5010850;28;20132;-73
2024/01/06 11:14:29;;;;;;;11.65;7.28;;;;;;;6.38;100.00;99631.78;5031626;28;20045;-72
2024/01/06 11:16:57;;;;;;;9.45;6.53;;;;;;;6.50;100.00;99614.63;5032267;28;20053;-73
2024/01/06 11:19:46;;;;;;;10.57;6.88;;;;;;;6.52;100.00;99595.22;5030538;28;20125;-72
2024/01/06 11:22:39;;;;;;;11.98;7.03;;;;;;;6.68;100.00;99612.06;5019203;28;20076;-71
2024/01/06 11:25:15;;;;;;;12.02;6.75;;;;;;;6.82;100.00;99621.97;5030356;28;20044;-71
2024/01/06 11:27:47;;;;;;;11.88;6.72;;;;;;;6.81;100.00;99619.41;5030813;28;20517;-72
2024/01/06 11:30:25;;;;;;;10.82;6.20;;;;;;;6.86;100.00;99622.72;5036367;28;20121;-71
2024/01/06 11:32:58;;;;;;;9.23;6.63;;;;;;;6.97;100.00;99617.81;5035927;28;20517;-70
2024/01/06 11:35:28;;;;;;;12.32;7.00;;;;;;;7.10;100.00;99616.34;5032223;28;20056;-72
2024/01/06 11:38:03;;;;;;;13.18;6.78;;;;;;;7.08;100.00;99617.34;5034679;28;20510;-70
2024/01/06 11:40:42;;;;;;;11.30;6.75;;;;;;;7.14;100.00;99612.66;5031655;28;20065;-71
2024/01/06 11:43:12;;;;;;;11.32;6.88;;;;;;;7.10;100.00;99595.28;5009362;28;20065;-72